createdAt,value
2018-08-31T00:01:09.430Z,96.10
2018-08-31T00:05:55.921Z,96.20
2018-08-31T00:10:38.948Z,96.00
2018-08-31T00:13:08.049Z,96.50
2018-08-31T00:15:36.550Z,96.90
2018-08-31T00:18:04.717Z,96.60
2018-08-31T00:20:32.894Z,96.60
2018-08-31T00:23:01.066Z,96.90
2018-08-31T00:26:08.012Z,97.10
2018-08-31T00:28:48.178Z,96.90
2018-08-31T00:32:00.035Z,96.50
2018-08-31T00:34:41.292Z,97.00
2018-08-31T00:37:17.103Z,97.30
2018-08-31T00:42:05.017Z,97.20
2018-08-31T00:45:39.062Z,97.30
2018-08-31T00:48:07.553Z,97.30
2018-08-31T00:50:35.968Z,96.90
2018-08-31T00:53:04.841Z,96.90
2018-08-31T00:55:33.249Z,96.80
2018-08-31T00:58:01.407Z,96.60
2018-08-31T01:00:29.595Z,96.70
2018-08-31T01:02:57.770Z,96.90
2018-08-31T01:05:25.861Z,97.10
2018-08-31T01:07:54.033Z,97.20
2018-08-31T01:10:23.296Z,97.20
2018-08-31T01:12:51.943Z,97.30
2018-08-31T01:15:20.043Z,97.70
2018-08-31T01:17:48.231Z,97.90
2018-08-31T01:20:16.449Z,97.90
2018-08-31T01:22:44.594Z,97.80
2018-08-31T01:25:12.932Z,97.80
2018-08-31T01:27:41.419Z,97.70
2018-08-31T01:30:09.892Z,97.70
2018-08-31T01:32:37.979Z,97.90
2018-08-31T01:35:06.153Z,97.90
2018-08-31T01:37:34.338Z,97.90
2018-08-31T01:40:02.430Z,97.80
2018-08-31T01:42:30.666Z,98.30
2018-08-31T01:44:58.787Z,98.20
2018-08-31T01:47:26.896Z,98.10
2018-08-31T01:49:55.087Z,98.20
2018-08-31T01:52:23.266Z,98.30
2018-08-31T01:54:51.447Z,98.70
2018-08-31T01:57:19.638Z,98.90
2018-08-31T01:59:47.828Z,99.10
2018-08-31T02:02:16.013Z,98.90
2018-08-31T02:04:44.245Z,98.80
2018-08-31T02:07:14.761Z,98.80
2018-08-31T02:09:44.374Z,98.90
2018-08-31T02:12:12.882Z,99.30
2018-08-31T02:14:41.039Z,99.00
2018-08-31T02:17:09.255Z,99.20
2018-08-31T02:19:37.447Z,99.20
2018-08-31T02:22:05.734Z,99.10
2018-08-31T02:24:33.891Z,99.10
2018-08-31T02:27:02.106Z,99.20
2018-08-31T02:29:30.386Z,99.30
2018-08-31T02:31:58.554Z,99.30
2018-08-31T02:34:26.734Z,99.50
2018-08-31T02:36:54.930Z,99.60
2018-08-31T02:39:23.196Z,99.50
2018-08-31T02:41:51.299Z,99.50
2018-08-31T02:44:19.484Z,99.60
2018-08-31T02:46:47.598Z,99.60
2018-08-31T02:49:15.765Z,99.80
2018-08-31T02:51:43.955Z,99.80
2018-08-31T02:54:12.142Z,99.80
2018-08-31T02:56:40.309Z,99.70
2018-08-31T02:59:08.413Z,99.70
2018-08-31T03:01:36.585Z,99.90
2018-08-31T03:04:04.788Z,99.70
2018-08-31T03:06:32.963Z,99.60
2018-08-31T03:09:01.154Z,99.90
2018-08-31T03:11:29.276Z,99.90
2018-08-31T03:13:57.318Z,99.90
2018-08-31T03:16:25.518Z,99.90
2018-08-31T03:18:53.698Z,99.90
2018-08-31T03:21:21.919Z,99.90
2018-08-31T03:23:50.083Z,99.90
2018-08-31T03:26:18.260Z,99.90
2018-08-31T03:28:46.450Z,99.90
2018-08-31T03:31:14.624Z,99.90
2018-08-31T03:33:42.822Z,99.90
2018-08-31T03:36:11.000Z,99.90
2018-08-31T03:38:39.189Z,99.90
2018-08-31T03:41:07.376Z,99.90
2018-08-31T03:43:35.574Z,99.90
2018-08-31T03:46:03.762Z,99.90
2018-08-31T03:48:31.942Z,99.90
2018-08-31T03:51:00.118Z,99.90
2018-08-31T03:53:28.337Z,99.90
2018-08-31T03:55:56.502Z,99.90
2018-08-31T03:58:24.690Z,99.90
2018-08-31T04:00:52.865Z,99.90
2018-08-31T04:03:21.075Z,99.90
2018-08-31T04:05:49.242Z,99.90
2018-08-31T04:08:17.442Z,99.90
2018-08-31T04:10:45.614Z,99.90
2018-08-31T04:13:13.723Z,99.90
2018-08-31T04:15:41.885Z,99.90
2018-08-31T04:18:09.979Z,99.90
2018-08-31T04:20:38.158Z,99.90
2018-08-31T04:23:06.245Z,99.90
2018-08-31T04:25:34.430Z,99.90
2018-08-31T04:28:02.624Z,99.90
2018-08-31T04:30:30.823Z,99.90
2018-08-31T04:32:58.994Z,99.90
2018-08-31T04:35:27.186Z,99.90
2018-08-31T04:37:55.363Z,99.90
2018-08-31T04:40:23.468Z,99.90
2018-08-31T04:42:51.751Z,99.90
2018-08-31T04:45:19.826Z,99.90
2018-08-31T04:47:48.028Z,99.90
2018-08-31T04:50:16.276Z,99.90
2018-08-31T04:52:44.387Z,99.90
2018-08-31T04:55:12.612Z,99.90
2018-08-31T04:57:40.758Z,99.90
2018-08-31T05:00:08.963Z,99.90
2018-08-31T05:02:37.126Z,99.90
2018-08-31T05:05:05.223Z,99.90
2018-08-31T05:07:33.425Z,99.90
2018-08-31T05:10:01.605Z,99.90
2018-08-31T05:12:29.697Z,99.90
2018-08-31T05:14:57.861Z,99.90
2018-08-31T05:17:26.052Z,99.90
2018-08-31T05:19:54.246Z,99.90
2018-08-31T05:22:22.437Z,99.90
2018-08-31T05:24:50.528Z,99.90
2018-08-31T05:27:18.693Z,99.90
2018-08-31T05:29:46.881Z,99.90
2018-08-31T05:32:15.078Z,99.90
2018-08-31T05:34:43.259Z,99.90
2018-08-31T05:37:11.464Z,99.90
2018-08-31T05:39:39.646Z,99.90
2018-08-31T05:42:07.818Z,99.90
2018-08-31T05:44:36.003Z,99.90
2018-08-31T05:47:04.210Z,99.90
2018-08-31T05:49:32.382Z,99.90
2018-08-31T05:52:00.579Z,99.90
2018-08-31T05:54:28.756Z,99.90
2018-08-31T05:56:56.950Z,99.90
2018-08-31T05:59:25.165Z,99.90
2018-08-31T06:01:53.333Z,99.90
2018-08-31T06:04:21.515Z,99.90
2018-08-31T06:06:49.698Z,99.90
2018-08-31T06:09:17.926Z,99.90
2018-08-31T06:11:46.131Z,99.90
2018-08-31T06:14:14.246Z,99.90
2018-08-31T06:16:42.454Z,99.90
2018-08-31T06:19:10.623Z,99.90
2018-08-31T06:21:38.818Z,99.90
2018-08-31T06:24:07.022Z,99.90
2018-08-31T06:26:35.194Z,99.90
2018-08-31T06:29:03.490Z,99.90
2018-08-31T06:31:31.689Z,99.90
2018-08-31T06:33:59.913Z,99.90
2018-08-31T06:36:28.041Z,99.90
2018-08-31T06:38:56.218Z,99.90
2018-08-31T06:41:24.430Z,99.90
2018-08-31T06:43:52.526Z,99.90
2018-08-31T06:46:20.810Z,99.90
2018-08-31T06:48:48.974Z,99.90
2018-08-31T06:51:17.217Z,99.90
2018-08-31T06:53:45.340Z,99.90
2018-08-31T06:56:13.539Z,99.90
2018-08-31T06:58:41.778Z,99.90
2018-08-31T07:01:09.968Z,99.90
2018-08-31T07:03:38.095Z,99.90
2018-08-31T07:06:06.303Z,99.90
2018-08-31T07:08:34.469Z,99.90
2018-08-31T07:11:02.670Z,99.90
2018-08-31T07:13:30.847Z,99.90
2018-08-31T07:15:59.015Z,99.90
2018-08-31T07:18:27.110Z,99.90
2018-08-31T07:20:55.314Z,99.90
2018-08-31T07:23:23.521Z,99.90
2018-08-31T07:25:51.702Z,99.90
2018-08-31T07:28:19.863Z,99.90
2018-08-31T07:30:48.053Z,99.90
2018-08-31T07:33:16.242Z,99.90
2018-08-31T07:35:44.428Z,99.90
2018-08-31T07:38:12.507Z,99.90
2018-08-31T07:40:40.689Z,99.90
2018-08-31T07:43:08.886Z,99.90
2018-08-31T07:45:37.068Z,99.90
2018-08-31T07:48:05.264Z,99.90
2018-08-31T07:50:34.254Z,99.90
2018-08-31T07:53:02.443Z,99.90
2018-08-31T07:55:30.734Z,99.90
2018-08-31T07:57:58.818Z,99.60
2018-08-31T08:00:27.009Z,99.60
2018-08-31T08:02:55.096Z,99.60
2018-08-31T08:05:23.295Z,99.40
2018-08-31T08:07:51.462Z,99.40
2018-08-31T08:10:19.651Z,99.30
2018-08-31T08:12:47.846Z,99.30
2018-08-31T08:15:16.015Z,98.80
2018-08-31T08:17:44.098Z,98.80
2018-08-31T08:20:12.291Z,98.80
2018-08-31T08:22:40.504Z,98.90
2018-08-31T08:25:08.667Z,99.00
2018-08-31T08:27:36.856Z,99.00
2018-08-31T08:30:05.072Z,99.00
2018-08-31T08:32:33.240Z,98.70
2018-08-31T08:35:01.410Z,98.70
2018-08-31T08:37:29.707Z,98.20
2018-08-31T08:39:57.794Z,98.10
2018-08-31T08:42:26.112Z,98.40
2018-08-31T08:44:55.282Z,97.30
2018-08-31T08:47:23.366Z,97.40
2018-08-31T08:49:51.466Z,97.10
2018-08-31T08:52:19.667Z,97.20
2018-08-31T08:54:47.831Z,97.40
2018-08-31T08:57:16.026Z,97.30
2018-08-31T08:59:44.399Z,96.60
2018-08-31T09:02:12.754Z,97.00
2018-08-31T09:04:40.878Z,96.60
2018-08-31T09:07:10.546Z,96.30
2018-08-31T09:09:38.690Z,96.70
2018-08-31T09:12:06.874Z,96.50
2018-08-31T09:14:34.974Z,96.60
2018-08-31T09:17:03.258Z,96.60
2018-08-31T09:19:31.367Z,96.80
2018-08-31T09:21:59.550Z,96.60
2018-08-31T09:24:27.781Z,96.30
2018-08-31T09:26:55.902Z,94.20
2018-08-31T09:29:24.093Z,94.70
2018-08-31T09:31:52.213Z,94.00
2018-08-31T09:34:20.394Z,93.90
2018-08-31T09:36:48.538Z,94.10
2018-08-31T09:39:17.231Z,94.10
2018-08-31T09:41:45.317Z,93.80
2018-08-31T09:44:13.410Z,93.30
2018-08-31T09:46:41.589Z,92.80
2018-08-31T09:49:09.685Z,92.10
2018-08-31T09:51:37.996Z,92.10
2018-08-31T09:54:06.179Z,92.10
2018-08-31T09:56:34.344Z,92.40
2018-08-31T09:59:02.537Z,92.10
2018-08-31T10:01:33.599Z,91.60
2018-08-31T10:04:02.910Z,91.50
2018-08-31T10:06:31.719Z,92.10
2018-08-31T10:08:59.902Z,91.30
2018-08-31T10:11:28.413Z,91.90
2018-08-31T10:13:56.574Z,91.40
2018-08-31T10:16:24.755Z,91.30
2018-08-31T10:18:52.901Z,91.10
2018-08-31T10:21:21.078Z,90.50
2018-08-31T10:23:49.214Z,91.00
2018-08-31T10:26:17.401Z,91.40
2018-08-31T10:28:45.590Z,90.40
2018-08-31T10:31:13.770Z,87.70
2018-08-31T10:33:41.967Z,90.00
2018-08-31T10:36:10.147Z,89.80
2018-08-31T10:38:38.338Z,88.70
2018-08-31T10:41:06.642Z,89.60
2018-08-31T10:43:34.819Z,87.30
2018-08-31T10:46:03.134Z,87.90
2018-08-31T10:48:31.295Z,88.40
2018-08-31T10:50:59.476Z,85.00
2018-08-31T10:53:27.660Z,86.60
2018-08-31T10:55:55.850Z,82.70
2018-08-31T10:58:24.025Z,83.30
2018-08-31T11:00:53.147Z,86.00
2018-08-31T11:03:21.331Z,82.60
2018-08-31T11:05:49.524Z,81.70
2018-08-31T11:08:17.704Z,83.40
2018-08-31T11:10:45.902Z,80.80
2018-08-31T11:13:14.145Z,79.90
2018-08-31T11:15:42.168Z,79.10
2018-08-31T11:18:10.342Z,78.00
2018-08-31T11:20:38.542Z,79.40
2018-08-31T11:23:06.845Z,82.10
2018-08-31T11:25:35.022Z,78.60
2018-08-31T11:28:03.202Z,79.40
2018-08-31T11:30:31.387Z,73.60
2018-08-31T11:32:59.570Z,73.80
2018-08-31T11:35:27.761Z,77.20
2018-08-31T11:37:55.971Z,73.50
2018-08-31T11:40:24.141Z,67.50
2018-08-31T11:42:52.350Z,70.00
2018-08-31T11:45:20.512Z,68.30
2018-08-31T11:47:48.698Z,68.80
2018-08-31T11:50:16.954Z,68.80
2018-08-31T11:52:45.076Z,69.00
2018-08-31T11:55:13.297Z,64.10
2018-08-31T11:57:41.445Z,63.60
2018-08-31T12:00:09.630Z,61.80
2018-08-31T12:02:37.810Z,60.80
2018-08-31T12:05:06.283Z,59.30
2018-08-31T12:07:34.410Z,61.80
2018-08-31T12:10:02.596Z,63.00
2018-08-31T12:12:30.801Z,65.80
2018-08-31T12:14:58.966Z,66.00
2018-08-31T12:17:27.138Z,69.30
2018-08-31T12:19:55.341Z,68.90
2018-08-31T12:22:23.543Z,68.30
2018-08-31T12:24:51.710Z,65.80
2018-08-31T12:27:19.887Z,67.10
2018-08-31T12:29:48.082Z,61.40
2018-08-31T12:32:16.253Z,62.50
2018-08-31T12:34:44.458Z,63.60
2018-08-31T12:37:12.630Z,63.50
2018-08-31T12:39:40.823Z,63.30
2018-08-31T12:42:09.002Z,59.90
2018-08-31T12:44:37.218Z,58.80
2018-08-31T12:47:05.412Z,57.60
2018-08-31T12:49:33.571Z,56.60
2018-08-31T12:52:01.899Z,55.50
2018-08-31T12:54:30.057Z,52.50
2018-08-31T12:56:58.239Z,54.10
2018-08-31T12:59:26.418Z,51.20
2018-08-31T13:01:54.522Z,48.00
2018-08-31T13:04:22.691Z,46.40
2018-08-31T13:06:51.002Z,50.30
2018-08-31T13:09:19.162Z,51.10
2018-08-31T13:11:47.274Z,52.50
2018-08-31T13:14:15.430Z,52.10
2018-08-31T13:16:43.630Z,49.40
2018-08-31T13:19:11.834Z,49.10
2018-08-31T13:21:40.009Z,47.50
2018-08-31T13:24:08.182Z,48.00
2018-08-31T13:26:36.393Z,48.20
2018-08-31T13:29:04.578Z,47.20
2018-08-31T13:31:32.754Z,49.70
2018-08-31T13:34:00.846Z,52.10
2018-08-31T13:36:29.026Z,51.40
2018-08-31T13:38:57.209Z,51.80
2018-08-31T13:41:25.400Z,52.70
2018-08-31T13:43:53.642Z,53.70
2018-08-31T13:46:21.777Z,53.70
2018-08-31T13:48:49.952Z,53.10
2018-08-31T13:51:18.144Z,55.20
2018-08-31T13:53:46.314Z,54.30
2018-08-31T13:56:14.411Z,53.70
2018-08-31T13:58:42.590Z,54.90
2018-08-31T14:01:10.786Z,53.80
2018-08-31T14:03:38.997Z,55.30
2018-08-31T14:06:07.170Z,54.10
2018-08-31T14:08:35.348Z,52.70
2018-08-31T14:11:03.540Z,51.70
2018-08-31T14:13:31.831Z,48.90
2018-08-31T14:16:00.023Z,49.70
2018-08-31T14:18:28.194Z,48.90
2018-08-31T14:20:56.405Z,49.20
2018-08-31T14:23:24.618Z,47.40
2018-08-31T14:25:52.764Z,47.30
2018-08-31T14:28:21.049Z,44.20
2018-08-31T14:30:49.252Z,45.00
2018-08-31T14:33:17.438Z,45.00
2018-08-31T14:35:45.598Z,46.10
2018-08-31T14:38:13.820Z,45.00
2018-08-31T14:40:41.982Z,45.70
2018-08-31T14:43:10.198Z,46.70
2018-08-31T14:45:38.386Z,45.90
2018-08-31T14:48:06.562Z,42.20
2018-08-31T14:50:34.726Z,44.70
2018-08-31T14:53:02.922Z,43.50
2018-08-31T14:55:31.103Z,44.30
2018-08-31T14:57:59.290Z,44.00
2018-08-31T15:00:27.467Z,44.10
2018-08-31T15:02:55.578Z,43.40
2018-08-31T15:05:23.773Z,44.10
2018-08-31T15:07:51.947Z,44.00
2018-08-31T15:10:20.138Z,44.50
2018-08-31T15:12:48.311Z,44.60
2018-08-31T15:15:16.486Z,43.70
2018-08-31T15:17:44.581Z,44.60
2018-08-31T15:20:12.662Z,44.80
2018-08-31T15:22:40.850Z,44.50
2018-08-31T15:25:09.306Z,46.70
2018-08-31T15:27:37.437Z,44.90
2018-08-31T15:30:07.518Z,46.60
2018-08-31T15:32:35.622Z,46.00
2018-08-31T15:35:03.738Z,46.00
2018-08-31T15:37:32.150Z,47.30
2018-08-31T15:40:00.301Z,50.50
2018-08-31T15:42:28.506Z,48.70
2018-08-31T15:44:56.680Z,47.00
2018-08-31T15:47:24.874Z,47.00
2018-08-31T15:49:53.140Z,47.00
2018-08-31T15:52:21.250Z,46.10
2018-08-31T15:54:49.414Z,46.20
2018-08-31T15:57:17.537Z,47.20
2018-08-31T15:59:45.699Z,44.70
2018-08-31T16:02:13.899Z,47.60
2018-08-31T16:04:41.971Z,47.50
2018-08-31T16:07:10.169Z,46.80
2018-08-31T16:09:38.343Z,47.40
2018-08-31T16:12:07.146Z,48.30
2018-08-31T16:14:35.343Z,48.20
2018-08-31T16:17:03.518Z,48.90
2018-08-31T16:19:31.747Z,47.90
2018-08-31T16:21:59.906Z,50.40
2018-08-31T16:24:28.079Z,51.30
2018-08-31T16:26:56.273Z,49.90
2018-08-31T16:29:24.461Z,48.00
2018-08-31T16:31:52.646Z,49.00
2018-08-31T16:34:20.847Z,49.70
2018-08-31T16:36:49.012Z,49.20
2018-08-31T16:39:17.206Z,49.60
2018-08-31T16:41:45.282Z,49.10
2018-08-31T16:44:13.486Z,49.70
2018-08-31T16:46:41.654Z,50.40
2018-08-31T16:49:09.841Z,50.60
2018-08-31T16:51:38.054Z,51.40
2018-08-31T16:54:06.141Z,50.40
2018-08-31T16:56:34.304Z,51.00
2018-08-31T16:59:02.505Z,50.20
2018-08-31T17:01:30.752Z,48.40
2018-08-31T17:03:58.875Z,49.10
2018-08-31T17:06:27.076Z,50.00
2018-08-31T17:08:55.254Z,49.60
2018-08-31T17:11:23.421Z,51.40
2018-08-31T17:13:51.638Z,49.30
2018-08-31T17:16:19.809Z,51.10
2018-08-31T17:18:47.985Z,52.60
2018-08-31T17:21:16.179Z,52.90
2018-08-31T17:23:44.363Z,53.80
2018-08-31T17:26:18.703Z,53.30
2018-08-31T17:28:52.394Z,53.20
2018-08-31T17:31:26.086Z,54.00
2018-08-31T17:33:59.830Z,54.50
2018-08-31T17:36:33.427Z,52.60
2018-08-31T17:39:01.502Z,54.00
2018-08-31T17:41:29.623Z,53.60
2018-08-31T17:43:57.861Z,55.00
2018-08-31T17:46:26.114Z,55.50
2018-08-31T17:48:54.722Z,54.60
2018-08-31T17:51:22.798Z,55.40
2018-08-31T17:53:50.882Z,56.00
2018-08-31T17:56:19.094Z,56.70
2018-08-31T17:58:47.157Z,56.50
2018-08-31T18:01:15.348Z,57.00
2018-08-31T18:03:43.529Z,57.80
2018-08-31T18:06:11.694Z,57.30
2018-08-31T18:08:39.913Z,57.10
2018-08-31T18:11:08.018Z,58.10
2018-08-31T18:13:36.161Z,59.10
2018-08-31T18:16:04.794Z,59.20
2018-08-31T18:18:32.858Z,59.60
2018-08-31T18:21:01.013Z,59.60
2018-08-31T18:23:29.112Z,60.60
2018-08-31T18:25:57.513Z,60.80
2018-08-31T18:28:25.613Z,60.70
2018-08-31T18:30:53.771Z,61.10
2018-08-31T18:33:22.115Z,61.70
2018-08-31T18:35:50.238Z,61.20
2018-08-31T18:38:18.318Z,61.90
2018-08-31T18:40:46.451Z,62.00
2018-08-31T18:43:14.598Z,63.10
2018-08-31T18:45:42.791Z,63.70
2018-08-31T18:48:10.983Z,63.50
2018-08-31T18:50:39.166Z,63.20
2018-08-31T18:53:07.345Z,64.30
2018-08-31T18:55:35.442Z,63.30
2018-08-31T18:58:03.854Z,63.80
2018-08-31T19:00:31.813Z,63.90
2018-08-31T19:03:00.024Z,64.00
2018-08-31T19:05:28.106Z,64.40
2018-08-31T19:07:56.257Z,64.80
2018-08-31T19:10:24.358Z,64.70
2018-08-31T19:12:52.541Z,65.00
2018-08-31T19:15:20.626Z,65.90
2018-08-31T19:17:48.806Z,66.60
2018-08-31T19:20:17.001Z,66.80
2018-08-31T19:22:45.173Z,67.10
2018-08-31T19:25:13.461Z,67.60
2018-08-31T19:27:41.550Z,67.90
2018-08-31T19:30:09.638Z,68.40
2018-08-31T19:32:37.819Z,68.30
2018-08-31T19:35:06.173Z,68.10
2018-08-31T19:37:34.330Z,68.50
2018-08-31T19:40:02.512Z,68.30
2018-08-31T19:42:30.694Z,68.90
2018-08-31T19:44:58.870Z,68.90
2018-08-31T19:47:27.045Z,69.90
2018-08-31T19:49:55.266Z,70.10
2018-08-31T19:52:23.426Z,69.70
2018-08-31T19:54:51.618Z,70.60
2018-08-31T19:57:19.701Z,70.50
2018-08-31T19:59:47.796Z,70.50
2018-08-31T20:02:15.966Z,69.90
2018-08-31T20:04:44.154Z,71.40
2018-08-31T20:07:12.239Z,70.50
2018-08-31T20:09:40.430Z,71.90
2018-08-31T20:12:08.611Z,72.30
2018-08-31T20:14:36.851Z,72.50
2018-08-31T20:17:04.989Z,72.40
2018-08-31T20:19:33.183Z,72.80
2018-08-31T20:22:01.384Z,72.60
2018-08-31T20:24:29.575Z,73.70
2018-08-31T20:26:57.759Z,73.40
2018-08-31T20:29:25.919Z,73.90
2018-08-31T20:31:54.122Z,73.70
2018-08-31T20:34:22.324Z,75.00
2018-08-31T20:36:50.488Z,74.40
2018-08-31T20:39:18.692Z,74.80
2018-08-31T20:41:46.865Z,74.80
2018-08-31T20:44:15.041Z,75.00
2018-08-31T20:46:43.240Z,74.60
2018-08-31T20:49:11.420Z,74.70
2018-08-31T20:51:39.619Z,74.60
2018-08-31T20:54:07.837Z,75.10
2018-08-31T20:56:36.001Z,76.90
2018-08-31T20:59:04.154Z,76.50
2018-08-31T21:01:33.479Z,75.90
2018-08-31T21:04:01.572Z,75.80
2018-08-31T21:06:29.770Z,75.90
2018-08-31T21:08:57.937Z,76.40
2018-08-31T21:11:26.254Z,77.20
2018-08-31T21:13:54.443Z,77.30
2018-08-31T21:16:22.603Z,77.60
2018-08-31T21:18:50.786Z,78.30
2018-08-31T21:21:18.978Z,77.90
2018-08-31T21:23:47.151Z,78.00
2018-08-31T21:26:15.246Z,78.40
2018-08-31T21:28:43.432Z,78.90
2018-08-31T21:31:11.626Z,79.20
2018-08-31T21:33:39.809Z,79.20
2018-08-31T21:36:08.002Z,79.50
2018-08-31T21:38:36.183Z,79.60
2018-08-31T21:41:04.367Z,80.00
2018-08-31T21:43:32.549Z,80.10
2018-08-31T21:46:00.746Z,80.20
2018-08-31T21:48:28.834Z,80.30
2018-08-31T21:50:57.017Z,80.70
2018-08-31T21:53:25.210Z,80.60
2018-08-31T21:55:53.390Z,81.60
2018-08-31T21:58:21.582Z,81.60
2018-08-31T22:00:50.235Z,82.10
2018-08-31T22:03:18.314Z,81.90
2018-08-31T22:05:48.310Z,82.00
2018-08-31T22:08:17.307Z,81.90
2018-08-31T22:10:45.483Z,81.60
2018-08-31T22:13:13.690Z,81.40
2018-08-31T22:15:41.854Z,81.20
2018-08-31T22:18:10.046Z,81.50
2018-08-31T22:20:38.214Z,81.70
2018-08-31T22:23:06.406Z,81.40
2018-08-31T22:25:34.486Z,81.70
2018-08-31T22:28:02.571Z,81.80
2018-08-31T22:30:30.763Z,81.80
2018-08-31T22:32:59.960Z,81.70
2018-08-31T22:35:28.066Z,81.30
2018-08-31T22:37:56.238Z,81.60
2018-08-31T22:40:24.438Z,81.90
2018-08-31T22:42:52.538Z,82.00
2018-08-31T22:45:20.719Z,82.70
2018-08-31T22:47:48.906Z,82.20
2018-08-31T22:50:17.065Z,82.50
2018-08-31T22:52:45.162Z,82.00
2018-08-31T22:55:13.342Z,82.50
2018-08-31T22:57:41.436Z,83.20
2018-08-31T23:00:09.622Z,82.90
2018-08-31T23:02:37.807Z,82.60
2018-08-31T23:05:06.170Z,83.10
2018-08-31T23:07:39.749Z,82.90
2018-08-31T23:10:08.118Z,83.30
2018-08-31T23:12:36.369Z,82.80
2018-08-31T23:15:04.477Z,83.30
2018-08-31T23:17:32.674Z,83.70
2018-08-31T23:20:00.846Z,84.00
2018-08-31T23:22:29.614Z,84.10
2018-08-31T23:24:59.811Z,84.30
2018-08-31T23:27:28.717Z,84.80
2018-08-31T23:29:56.890Z,84.90
2018-08-31T23:35:15.794Z,84.70
2018-08-31T23:37:44.026Z,86.00
2018-08-31T23:40:12.157Z,85.90
2018-08-31T23:42:40.354Z,86.00
2018-08-31T23:45:08.541Z,86.20
2018-08-31T23:47:36.730Z,86.20
2018-08-31T23:50:05.183Z,86.10
2018-08-31T23:52:33.330Z,86.30
2018-08-31T23:55:01.493Z,87.00
2018-08-31T23:57:29.711Z,86.70
2018-08-31T23:59:57.862Z,87.20
